Time;durP1;ratioP1;P1;durP2;ratioP2;P2;SDS_P1;SDS_P2;PMS_P1;PMS_P2;Temp;Humidity;BMP_temperature;BMP_pressure;BME280_temperature;BME280_humidity;BME280_pressure;Samples;Min_cycle;Max_cycle;Signal;HPM_P1;HPM_P2
2021/05/28 00:00:33;;;;;;;23.10;15.30;;;;;;;6.15;80.59;99564.75;1767230;79;21083;-64
2021/05/28 00:03:01;;;;;;;20.00;13.65;;;;;;;6.15;80.60;99566.05;1763240;79;21004;-64
2021/05/28 00:05:28;;;;;;;18.12;11.93;;;;;;;6.10;80.56;99570.52;1763200;79;21204;-64
2021/05/28 00:07:55;;;;;;;16.95;11.80;;;;;;;6.02;80.48;99564.28;1739668;79;22902;-64
2021/05/28 00:10:22;;;;;;;17.95;12.25;;;;;;;5.93;80.49;99561.53;1765753;79;20999;-65
2021/05/28 00:12:49;;;;;;;17.85;12.93;;;;;;;5.86;80.54;99565.19;1760091;79;20991;-64
2021/05/28 00:15:17;;;;;;;17.95;13.70;;;;;;;5.79;80.56;99555.89;1749123;81;21616;-64
2021/05/28 00:17:43;;;;;;;17.87;12.90;;;;;;;5.75;80.62;99556.89;1757150;81;20948;-64
2021/05/28 00:20:13;;;;;;;17.00;12.03;;;;;;;5.70;80.65;99566.54;1748457;81;21788;-64
2021/05/28 00:22:44;;;;;;;14.73;12.05;;;;;;;5.66;80.72;99559.31;1749045;81;21627;-64
2021/05/28 00:25:12;;;;;;;14.68;12.18;;;;;;;5.66;80.89;99559.73;1729480;81;21032;-65
2021/05/28 00:27:40;;;;;;;15.43;13.03;;;;;;;5.64;80.87;99559.80;1702867;82;21063;-64
2021/05/28 00:30:08;;;;;;;18.45;13.00;;;;;;;5.66;80.98;99557.14;1735625;81;21621;-64
2021/05/28 00:32:35;;;;;;;16.90;12.88;;;;;;;5.68;80.99;99560.55;1731502;81;21073;-65
2021/05/28 00:35:02;;;;;;;20.75;13.38;;;;;;;5.70;81.11;99562.66;1735662;81;22513;-65
2021/05/28 00:37:29;;;;;;;20.45;14.68;;;;;;;5.73;81.07;99558.67;1737885;81;21589;-64
2021/05/28 00:39:55;;;;;;;19.30;14.10;;;;;;;5.74;81.08;99565.53;1759511;80;20991;-64
2021/05/28 00:42:22;;;;;;;21.48;15.58;;;;;;;5.76;81.19;99568.94;1757540;81;20999;-65
2021/05/28 00:44:48;;;;;;;22.37;14.25;;;;;;;5.76;81.07;99562.01;1758470;81;21486;-65
2021/05/28 00:47:15;;;;;;;16.90;13.72;;;;;;;5.76;81.23;99563.76;1760491;80;21106;-65
2021/05/28 00:49:41;;;;;;;17.20;13.20;;;;;;;5.78;81.23;99570.59;1754360;80;21059;-65
2021/05/28 00:52:08;;;;;;;16.97;12.53;;;;;;;5.76;81.18;99558.58;1756647;80;21139;-64
2021/05/28 00:54:35;;;;;;;18.95;11.28;;;;;;;5.75;81.14;99556.44;1753924;80;21027;-64
2021/05/28 00:57:01;;;;;;;14.95;12.15;;;;;;;5.70;81.15;99558.77;1753206;80;21461;-65
2021/05/28 00:59:28;;;;;;;15.68;11.83;;;;;;;5.69;81.27;99563.10;1728419;81;21072;-65
2021/05/28 01:01:55;;;;;;;16.30;12.27;;;;;;;5.71;81.34;99563.04;1729576;81;21642;-64
2021/05/28 01:04:22;;;;;;;18.40;11.10;;;;;;;5.73;81.40;99566.44;1730512;81;21681;-64
2021/05/28 01:06:48;;;;;;;12.57;10.47;;;;;;;5.72;81.31;99562.17;1710540;81;20969;-64
2021/05/28 01:09:15;;;;;;;16.63;10.03;;;;;;;5.68;81.22;99567.02;1705073;82;21754;-64
2021/05/28 01:11:42;;;;;;;14.20;9.70;;;;;;;5.58;81.17;99564.71;1750868;81;21144;-65
2021/05/28 01:14:08;;;;;;;13.85;11.50;;;;;;;5.54;81.22;99569.56;1747767;81;21217;-65
2021/05/28 01:16:35;;;;;;;14.37;10.90;;;;;;;5.52;81.29;99566.19;1730383;81;21621;-65
2021/05/28 01:19:02;;;;;;;12.60;10.17;;;;;;;5.49;81.32;99564.98;1736433;81;21600;-64
2021/05/28 01:21:29;;;;;;;14.18;10.60;;;;;;;5.46;81.34;99566.37;1739009;81;21071;-65
2021/05/28 01:23:56;;;;;;;18.32;10.30;;;;;;;5.39;81.22;99566.13;1737607;81;21910;-64
2021/05/28 01:26:23;;;;;;;16.63;11.13;;;;;;;5.31;81.24;99565.50;1736040;81;20972;-65
2021/05/28 01:28:50;;;;;;;13.00;10.78;;;;;;;5.27;81.31;99563.91;1736491;81;21015;-64
2021/05/28 01:31:17;;;;;;;15.98;10.18;;;;;;;5.22;81.28;99564.47;1736652;81;20992;-64
2021/05/28 01:33:45;;;;;;;13.58;10.82;;;;;;;5.21;81.32;99558.87;1736521;81;22125;-64
2021/05/28 01:36:11;;;;;;;17.07;11.20;;;;;;;5.17;81.41;99562.00;1678590;82;21231;-65
2021/05/28 01:38:39;;;;;;;13.72;10.85;;;;;;;5.15;81.53;99560.77;1738252;81;21020;-65
2021/05/28 01:41:06;;;;;;;14.03;11.03;;;;;;;5.15;81.47;99556.89;1734541;81;20992;-65
2021/05/28 01:43:34;;;;;;;14.00;11.18;;;;;;;5.15;81.52;99565.07;1735820;81;21098;-65
2021/05/28 01:46:01;;;;;;;14.28;11.08;;;;;;;5.18;81.74;99562.84;1740735;81;24404;-65
2021/05/28 01:48:27;;;;;;;19.60;11.63;;;;;;;5.22;81.83;99569.65;1739249;81;21075;-64
2021/05/28 01:50:54;;;;;;;13.85;11.63;;;;;;;5.24;81.79;99563.55;1733284;81;21236;-64
2021/05/28 01:53:24;;;;;;;18.85;10.63;;;;;;;5.25;81.75;99569.56;1733569;81;21016;-65
2021/05/28 01:55:52;;;;;;;17.10;10.32;;;;;;;5.24;81.73;99571.76;1736975;81;21051;-65
2021/05/28 01:58:22;;;;;;;12.37;9.73;;;;;;;5.21;81.69;99567.94;1736373;81;21640;-65
2021/05/28 02:00:52;;;;;;;14.25;9.70;;;;;;;5.15;81.64;99566.36;1707304;81;21016;-64
2021/05/28 02:03:19;;;;;;;10.80;8.20;;;;;;;5.08;81.61;99566.98;1704350;82;21195;-64
2021/05/28 02:05:47;;;;;;;12.33;9.08;;;;;;;5.01;81.56;99569.33;1742094;81;21019;-65
2021/05/28 02:08:14;;;;;;;;;;;;;;;4.94;81.55;99572.98;1708764;82;21585;-65
2021/05/28 02:10:40;;;;;;;;;;;;;;;4.86;81.59;99567.16;1690005;83;20538;-64
2021/05/28 02:13:07;;;;;;;12.98;9.70;;;;;;;4.80;81.68;99563.00;1686235;83;20189;-64
2021/05/28 02:15:34;;;;;;;17.15;10.80;;;;;;;4.76;81.68;99564.41;1723869;81;21059;-64
2021/05/28 02:18:01;;;;;;;15.15;10.08;;;;;;;4.73;81.74;99565.78;1762254;79;20982;-64
2021/05/28 02:20:28;;;;;;;13.93;10.20;;;;;;;4.70;81.78;99566.70;1767518;79;21000;-64
2021/05/28 02:22:54;;;;;;;15.40;9.65;;;;;;;4.69;81.86;99570.19;1767283;79;21121;-65
2021/05/28 02:25:21;;;;;;;11.90;9.45;;;;;;;4.66;81.82;99562.52;1764689;79;21109;-65
2021/05/28 02:27:48;;;;;;;12.18;9.08;;;;;;;4.62;81.82;99560.88;1766860;79;21576;-64
2021/05/28 02:30:16;;;;;;;13.53;10.08;;;;;;;4.58;81.82;99565.28;1766419;79;21039;-65
2021/05/28 02:32:43;;;;;;;14.33;9.33;;;;;;;4.56;81.85;99563.62;1765782;79;21106;-64
2021/05/28 02:35:11;;;;;;;14.07;8.88;;;;;;;4.57;81.93;99571.36;1761651;79;22290;-64
2021/05/28 02:37:38;;;;;;;13.78;9.83;;;;;;;4.60;81.91;99567.84;1767226;79;21617;-65
2021/05/28 02:40:07;;;;;;;11.90;8.83;;;;;;;4.60;81.88;99571.27;1762944;79;21584;-65
2021/05/28 02:42:35;;;;;;;14.23;8.48;;;;;;;4.62;81.91;99574.67;1757718;79;21079;-65
2021/05/28 02:45:04;;;;;;;11.55;8.00;;;;;;;4.61;81.86;99584.59;1764562;79;21552;-65
2021/05/28 02:47:31;;;;;;;12.07;8.75;;;;;;;4.63;81.87;99580.25;1764367;79;21218;-65
2021/05/28 02:49:57;;;;;;;12.63;8.30;;;;;;;4.67;81.99;99588.31;1763756;79;20991;-64
2021/05/28 02:52:24;;;;;;;15.30;9.58;;;;;;;4.84;82.18;99589.63;1737434;81;21098;-64
2021/05/28 02:54:51;;;;;;;11.90;7.40;;;;;;;5.38;82.72;99587.75;1733322;82;21633;-65
2021/05/28 02:57:17;;;;;;;9.65;7.72;;;;;;;6.12;82.62;99590.33;1738759;81;21250;-65
2021/05/28 02:59:44;;;;;;;10.87;8.07;;;;;;;6.90;82.36;99594.25;1730471;82;22760;-65
2021/05/28 03:02:11;;;;;;;9.63;6.72;;;;;;;7.60;81.64;99586.16;1767793;79;20984;-64
2021/05/28 03:04:37;;;;;;;8.65;6.35;;;;;;;8.08;81.00;99585.18;1765733;79;20980;-65
2021/05/28 03:07:04;;;;;;;13.45;6.40;;;;;;;8.04;80.37;99581.86;1762365;79;21012;-65
2021/05/28 03:09:31;;;;;;;6.95;6.08;;;;;;;8.01;80.28;99583.71;1765870;79;21031;-64
2021/05/28 03:11:57;;;;;;;8.93;6.20;;;;;;;8.24;80.86;99589.33;1760223;79;22140;-65
2021/05/28 03:14:24;;;;;;;11.83;6.35;;;;;;;8.98;80.94;99589.77;1761560;79;21019;-65
2021/05/28 03:16:51;;;;;;;9.53;5.87;;;;;;;9.79;80.55;99584.01;1738834;81;21044;-65
2021/05/28 03:19:23;;;;;;;5.50;4.60;;;;;;;10.62;80.21;99586.61;1739681;81;21005;-65
2021/05/28 03:24:29;;;;;;;8.58;5.42;;;;;;;11.00;77.72;99591.66;1695849;84;21422;-65
2021/05/28 03:26:56;;;;;;;8.47;5.93;;;;;;;10.47;78.32;99591.67;1668616;84;21011;-65
2021/05/28 03:29:22;;;;;;;7.10;5.93;;;;;;;10.26;78.63;99588.75;1674272;84;21020;-65
2021/05/28 03:31:49;;;;;;;9.63;5.80;;;;;;;10.02;78.63;99586.38;1675233;84;21771;-65
2021/05/28 03:34:16;;;;;;;11.00;6.27;;;;;;;9.64;78.56;99591.62;1695228;82;21127;-65
2021/05/28 03:36:42;;;;;;;7.70;5.80;;;;;;;9.28;78.72;99595.88;1695211;83;21542;-64
2021/05/28 03:39:09;;;;;;;11.37;5.77;;;;;;;8.98;78.92;99591.06;1697442;83;21094;-65
2021/05/28 03:41:36;;;;;;;13.93;7.23;;;;;;;8.71;79.31;99595.23;1698011;83;21078;-65
2021/05/28 03:44:03;;;;;;;9.35;7.12;;;;;;;8.49;79.55;99587.92;1669978;84;21261;-65
2021/05/28 03:46:30;;;;;;;;;;;;;;;8.29;79.72;99593.45;1656574;85;21723;-65
2021/05/28 03:48:56;;;;;;;10.72;6.87;;;;;;;8.17;80.02;99595.21;1647023;85;21191;-64
2021/05/28 03:51:23;;;;;;;9.95;6.92;;;;;;;8.09;80.17;99589.46;1644024;86;21159;-64
2021/05/28 03:53:50;;;;;;;17.37;6.70;;;;;;;7.96;80.25;99589.57;1650870;85;21079;-65
2021/05/28 03:56:16;;;;;;;11.25;6.60;;;;;;;7.83;80.35;99588.72;1695088;83;21691;-65
2021/05/28 03:58:44;;;;;;;10.83;6.37;;;;;;;7.80;80.79;99603.14;1694829;83;21050;-65
2021/05/28 04:01:10;;;;;;;9.90;6.55;;;;;;;7.94;81.26;99604.37;1736510;81;24304;-65
2021/05/28 04:03:37;;;;;;;9.08;6.42;;;;;;;8.05;81.16;99609.55;1749228;81;21070;-64
2021/05/28 04:06:05;;;;;;;7.60;5.45;;;;;;;8.13;81.21;99611.86;1744439;81;21059;-64
2021/05/28 04:08:31;;;;;;;12.10;5.40;;;;;;;8.22;81.36;99610.19;1750473;80;22070;-65
2021/05/28 04:10:58;;;;;;;8.18;4.70;;;;;;;8.25;81.15;99613.97;1746432;80;20954;-65
2021/05/28 04:13:33;;;;;;;7.30;5.30;;;;;;;8.34;81.41;99614.52;1747844;80;21064;-64
2021/05/28 04:16:01;;;;;;;12.53;5.85;;;;;;;8.42;81.34;99607.28;1735915;80;20996;-64
2021/05/28 04:18:28;;;;;;;5.12;4.25;;;;;;;8.40;81.31;99617.77;1718846;81;21519;-65
2021/05/28 04:20:55;;;;;;;10.95;4.72;;;;;;;8.41;81.39;99615.55;1743772;80;21658;-65
2021/05/28 04:23:22;;;;;;;5.83;4.00;;;;;;;8.47;81.44;99613.16;1744850;80;21032;-64
2021/05/28 04:25:49;;;;;;;4.17;3.22;;;;;;;8.53;81.48;99612.90;1745658;81;22444;-65
2021/05/28 04:28:17;;;;;;;4.22;3.62;;;;;;;8.67;81.55;99613.18;1743202;81;21585;-65
2021/05/28 04:30:45;;;;;;;;;;;;;;;8.82;81.61;99616.05;1732474;81;20987;-64
2021/05/28 04:33:12;;;;;;;5.90;3.58;;;;;;;9.03;81.62;99622.97;1724770;82;20167;-64
2021/05/28 04:35:39;;;;;;;3.20;2.90;;;;;;;9.24;81.65;99619.89;1725541;81;21574;-65
2021/05/28 04:38:05;;;;;;;5.42;3.72;;;;;;;9.46;81.51;99623.70;1745595;80;21034;-64
2021/05/28 04:40:32;;;;;;;10.63;3.65;;;;;;;9.73;81.35;99618.19;1751906;81;21047;-64
2021/05/28 04:42:59;;;;;;;4.50;3.37;;;;;;;10.03;80.94;99619.39;1748266;81;21035;-65
2021/05/28 04:45:27;;;;;;;4.23;3.43;;;;;;;10.95;81.02;99620.19;1740569;81;21554;-65
2021/05/28 04:47:54;;;;;;;4.28;2.90;;;;;;;12.09;81.89;99614.21;1747740;81;21463;-66
2021/05/28 04:50:30;;;;;;;4.78;3.20;;;;;;;14.23;81.97;99613.73;1735763;80;21768;-66
2021/05/28 04:52:51;;;;;;;3.17;2.60;;;;;;;15.07;78.84;99609.13;1739159;81;21302;-66
2021/05/28 04:55:19;;;;;;;4.80;2.35;;;;;;;15.91;79.40;99611.69;1727784;81;21574;-65
2021/05/28 04:57:45;;;;;;;3.75;2.72;;;;;;;17.02;78.78;99609.73;1725092;81;21064;-65
2021/05/28 05:00:15;;;;;;;3.80;2.27;;;;;;;18.26;78.26;99611.91;1731030;81;20950;-66
2021/05/28 05:02:42;;;;;;;3.75;2.60;;;;;;;18.65;74.90;99613.59;1723149;81;21103;-66
2021/05/28 05:05:10;;;;;;;2.45;2.25;;;;;;;18.04;73.37;99616.30;1746915;81;26266;-66
2021/05/28 05:07:36;;;;;;;3.25;2.50;;;;;;;17.53;74.64;99614.15;1744377;80;21041;-66
2021/05/28 05:10:05;;;;;;;7.62;2.45;;;;;;;17.47;74.64;99618.56;1747441;81;21031;-66
2021/05/28 05:12:32;;;;;;;3.60;2.67;;;;;;;17.81;75.21;99625.19;1749706;81;21108;-66
2021/05/28 05:15:00;;;;;;;3.00;2.37;;;;;;;17.61;73.09;99618.32;1745814;80;21071;-66
2021/05/28 05:17:27;;;;;;;3.92;2.45;;;;;;;18.25;74.04;99626.10;1751129;80;20992;-65
2021/05/28 05:19:53;;;;;;;;;;;;;;;18.79;74.38;99625.22;1741808;81;21126;-67
2021/05/28 05:33:12;;;;;;;2.97;1.80;;;;;;;22.17;71.61;99621.44;1857543;75;22749;-66
2021/05/28 05:35:39;;;;;;;2.85;1.82;;;;;;;22.77;71.05;99628.41;1820897;77;21050;-66
2021/05/28 05:38:08;;;;;;;4.00;1.85;;;;;;;22.91;69.82;99621.20;1819992;77;21157;-66
2021/05/28 05:40:37;;;;;;;3.35;1.80;;;;;;;23.23;70.32;99614.46;1815709;77;20998;-65
2021/05/28 05:43:04;;;;;;;1.80;1.40;;;;;;;23.24;66.88;99616.95;1816645;77;21052;-65
2021/05/28 05:45:31;;;;;;;2.83;1.50;;;;;;;21.31;65.02;99618.97;1811335;77;21711;-64
2021/05/28 05:47:58;;;;;;;1.75;1.52;;;;;;;19.83;66.59;99626.15;1818460;77;21722;-64
2021/05/28 05:50:24;;;;;;;9.28;2.00;;;;;;;18.65;66.18;99625.48;1822966;77;21074;-64
2021/05/28 05:52:53;;;;;;;2.52;1.67;;;;;;;18.04;67.63;99625.55;1824430;77;21560;-64
2021/05/28 05:55:22;;;;;;;1.90;1.60;;;;;;;18.02;68.41;99624.82;1815072;77;20975;-65
2021/05/28 05:57:49;;;;;;;2.65;1.47;;;;;;;18.04;67.33;99628.19;1823494;77;21014;-65
2021/05/28 06:00:17;;;;;;;3.80;1.80;;;;;;;17.62;67.32;99627.11;1825392;77;21002;-65
2021/05/28 06:02:44;;;;;;;1.57;1.30;;;;;;;17.16;66.64;99630.15;1807022;77;20990;-65
2021/05/28 06:05:12;;;;;;;4.80;1.70;;;;;;;16.97;67.00;99636.00;1812663;77;21606;-65
2021/05/28 06:07:38;;;;;;;1.90;1.47;;;;;;;16.65;67.43;99640.14;1800315;78;20959;-65
2021/05/28 06:10:06;;;;;;;2.25;1.52;;;;;;;16.38;67.19;99638.56;1824901;77;20967;-65
2021/05/28 06:12:33;;;;;;;3.08;1.42;;;;;;;15.84;67.22;99643.72;1818755;77;21002;-65
2021/05/28 06:15:00;;;;;;;2.35;1.75;;;;;;;15.58;67.64;99648.63;1813430;77;22248;-65
2021/05/28 06:17:26;;;;;;;2.15;1.60;;;;;;;15.32;68.05;99648.63;1819562;77;20978;-63
2021/05/28 06:19:53;;;;;;;2.60;1.55;;;;;;;15.30;68.30;99655.77;1815578;77;21821;-65
2021/05/28 06:22:24;;;;;;;3.52;1.30;;;;;;;15.41;68.56;99654.57;1815409;77;21002;-65
2021/05/28 06:24:56;;;;;;;2.20;1.60;;;;;;;15.37;68.14;99660.97;1786951;78;20998;-65
2021/05/28 06:27:24;;;;;;;2.70;1.60;;;;;;;15.12;66.64;99662.26;1747421;80;21124;-65
2021/05/28 06:29:51;;;;;;;5.62;1.75;;;;;;;14.80;67.44;99666.56;1772854;80;21031;-65
2021/05/28 06:32:18;;;;;;;3.17;1.60;;;;;;;14.51;67.29;99671.06;1785908;78;21304;-65
2021/05/28 06:34:45;;;;;;;2.25;1.57;;;;;;;14.09;67.08;99668.43;1780481;78;21000;-66
2021/05/28 06:37:11;;;;;;;3.22;2.10;;;;;;;13.93;67.60;99672.94;1737229;80;21005;-66
2021/05/28 06:39:38;;;;;;;4.17;2.08;;;;;;;13.99;67.60;99676.50;1781894;79;22329;-66
2021/05/28 06:42:05;;;;;;;2.15;1.95;;;;;;;14.10;68.33;99677.98;1787350;79;21077;-65
2021/05/28 06:44:32;;;;;;;2.50;2.08;;;;;;;14.49;67.72;99675.09;1742031;81;21013;-65
2021/05/28 06:46:59;;;;;;;2.62;2.42;;;;;;;14.46;66.14;99679.70;1755768;80;20997;-65
2021/05/28 06:49:25;;;;;;;4.53;2.55;;;;;;;14.18;67.34;99683.23;1755666;80;20946;-65
2021/05/28 06:51:52;;;;;;;5.17;2.00;;;;;;;14.17;67.46;99689.41;1756495;80;21039;-66
2021/05/28 06:54:19;;;;;;;3.08;2.33;;;;;;;13.93;67.39;99678.19;1754373;80;21092;-65
2021/05/28 06:56:45;;;;;;;5.05;2.67;;;;;;;13.82;67.67;99676.70;1757316;80;21011;-66
2021/05/28 06:59:12;;;;;;;3.00;2.33;;;;;;;14.01;68.10;99677.25;1778801;80;21153;-65
2021/05/28 07:01:39;;;;;;;;;;;;;;;14.55;68.51;99682.60;1773011;78;21098;-66
2021/05/28 07:04:06;;;;;;;4.83;2.52;;;;;;;14.91;67.84;99685.10;1727724;80;20975;-66
2021/05/28 07:06:35;;;;;;;3.10;2.40;;;;;;;15.00;67.52;99685.80;1773162;79;21496;-66
2021/05/28 07:09:02;;;;;;;4.72;2.52;;;;;;;15.12;68.01;99685.93;1782727;80;21071;-66
2021/05/28 07:11:28;;;;;;;;;;;;;;;15.31;67.41;99689.02;1792030;78;21008;-66
2021/05/28 07:13:55;;;;;;;2.98;1.98;;;;;;;15.21;67.19;99688.80;1776036;79;20180;-66
2021/05/28 07:16:22;;;;;;;3.37;2.10;;;;;;;14.99;66.76;99693.80;1784529;78;22201;-65
2021/05/28 07:18:48;;;;;;;2.10;2.00;;;;;;;14.90;67.12;99692.62;1776610;78;21006;-66
2021/05/28 07:21:15;;;;;;;3.50;1.75;;;;;;;14.91;67.04;99692.98;1776153;78;21035;-66
2021/05/28 07:23:42;;;;;;;2.98;2.22;;;;;;;14.57;66.44;99692.19;1774262;78;21134;-66
2021/05/28 07:26:10;;;;;;;2.80;2.00;;;;;;;14.00;66.28;99693.95;1772639;78;21624;-65
2021/05/28 07:31:28;;;;;;;2.80;2.22;;;;;;;13.62;67.45;99702.37;1686316;83;22478;-65
2021/05/28 07:33:54;;;;;;;2.02;1.80;;;;;;;13.56;68.03;99700.59;1685652;83;21035;-67
2021/05/28 07:36:23;;;;;;;3.02;2.10;;;;;;;13.58;67.70;99706.13;1690323;83;21015;-66
2021/05/28 07:38:50;;;;;;;29.70;7.03;;;;;;;13.44;67.50;99698.20;1684116;84;21103;-66
2021/05/28 07:41:16;;;;;;;66.30;11.25;;;;;;;13.55;68.44;99701.03;1677802;84;24373;-66
2021/05/28 07:43:43;;;;;;;20.17;4.97;;;;;;;13.89;68.77;99700.30;1678493;84;21112;-67
2021/05/28 07:46:11;;;;;;;3.87;2.50;;;;;;;14.16;68.22;99695.61;1683866;84;21068;-66
2021/05/28 07:48:37;;;;;;;15.20;3.60;;;;;;;14.17;68.09;99693.34;1678443;83;21621;-68
2021/05/28 07:51:05;;;;;;;173.40;28.17;;;;;;;14.38;68.60;99693.32;1682714;82;21116;-66
2021/05/28 07:53:31;;;;;;;27.13;6.47;;;;;;;14.55;68.52;99690.48;1649735;85;21657;-67
2021/05/28 07:56:05;;;;;;;4.67;2.85;;;;;;;14.68;68.39;99694.97;1672881;84;21586;-66
2021/05/28 07:58:33;;;;;;;5.35;2.55;;;;;;;14.48;67.25;99699.69;1666874;84;21071;-67
2021/05/28 08:01:00;;;;;;;3.12;2.35;;;;;;;14.39;67.68;99701.56;1651241;84;21130;-67
2021/05/28 08:03:28;;;;;;;6.85;2.90;;;;;;;14.09;67.09;99701.25;1665857;84;20995;-68
2021/05/28 08:05:54;;;;;;;;;;;;;;;13.85;68.13;99692.25;1669325;84;21099;-66
2021/05/28 08:08:26;;;;;;;2.75;2.30;;;;;;;13.92;67.34;99701.45;1669830;84;20307;-66
2021/05/28 08:10:52;;;;;;;7.17;3.15;;;;;;;13.54;67.55;99705.91;1668403;84;21632;-67
2021/05/28 08:13:19;;;;;;;7.28;3.37;;;;;;;13.34;67.76;99712.82;1671070;84;21038;-67
2021/05/28 08:15:47;;;;;;;5.03;2.83;;;;;;;13.04;68.18;99713.63;1672754;84;21017;-66
2021/05/28 08:18:14;;;;;;;5.60;3.47;;;;;;;13.21;68.98;99725.28;1678608;84;21080;-67
2021/05/28 08:20:42;;;;;;;4.87;2.95;;;;;;;13.46;68.96;99722.57;1687691;84;21016;-67
2021/05/28 08:24:17;;;;;;;5.75;2.50;;;;;;;13.66;68.63;99720.07;1836020;76;22628;-65
2021/05/28 08:26:44;;;;;;;2.50;2.22;;;;;;;13.49;67.59;99730.25;1806031;77;21012;-66
2021/05/28 08:29:10;;;;;;;8.68;2.50;;;;;;;13.20;67.45;99727.54;1803559;79;21775;-66
2021/05/28 08:31:37;;;;;;;5.70;3.22;;;;;;;12.99;67.70;99724.39;1802517;79;22405;-66
2021/05/28 08:34:04;;;;;;;3.22;2.02;;;;;;;13.10;68.71;99726.37;1804058;79;20945;-67
2021/05/28 08:36:31;;;;;;;;;;;;;;;13.66;69.30;99730.09;1807740;77;21039;-66
2021/05/28 08:38:57;;;;;;;8.27;2.80;;;;;;;14.24;69.12;99725.70;1802471;77;20517;-66
2021/05/28 08:41:26;;;;;;;2.25;1.67;;;;;;;14.84;69.42;99727.17;1796592;77;22340;-68
2021/05/28 08:43:53;;;;;;;2.35;1.87;;;;;;;15.57;69.08;99723.24;1802937;79;21024;-68
2021/05/28 08:46:21;;;;;;;;;;;;;;;16.03;68.82;99720.13;1806200;77;21001;-67
2021/05/28 08:48:52;;;;;;;1.20;1.05;;;;;;;16.58;68.52;99720.16;1802397;77;20156;-67
2021/05/28 08:51:20;;;;;;;3.15;1.40;;;;;;;16.95;67.99;99716.19;1803882;77;22421;-66
2021/05/28 08:53:47;;;;;;;1.92;1.40;;;;;;;17.39;67.56;99715.51;1805328;77;21020;-67
2021/05/28 08:56:14;;;;;;;4.08;1.67;;;;;;;17.71;67.83;99716.64;1800269;79;20979;-67
2021/05/28 08:58:42;;;;;;;3.27;1.20;;;;;;;18.02;66.85;99713.33;1805903;79;20976;-67
2021/05/28 09:01:10;;;;;;;1.67;1.10;;;;;;;17.94;65.61;99709.60;1805309;77;21085;-66
2021/05/28 09:03:38;;;;;;;2.17;1.45;;;;;;;17.62;65.08;99709.79;1803580;77;21096;-66
2021/05/28 09:06:17;;;;;;;1.45;1.30;;;;;;;17.56;66.15;99710.27;1803762;78;21073;-66
2021/05/28 09:08:47;;;;;;;1.82;1.30;;;;;;;17.58;65.55;99705.69;1802786;79;20983;-67
2021/05/28 09:11:19;;;;;;;4.67;1.70;;;;;;;17.36;66.01;99704.31;1799644;79;22283;-66
2021/05/28 09:13:56;;;;;;;1.92;1.10;;;;;;;17.52;65.56;99702.20;1802889;77;20996;-67
2021/05/28 09:16:28;;;;;;;2.10;1.55;;;;;;;17.16;65.51;99700.06;1803978;79;21541;-67
2021/05/28 09:18:58;;;;;;;1.52;1.30;;;;;;;17.09;65.35;99704.13;1805068;79;21032;-68
2021/05/28 09:21:33;;;;;;;2.55;1.10;;;;;;;16.86;65.47;99703.66;1807963;79;21014;-67
2021/05/28 09:24:06;;;;;;;1.57;1.20;;;;;;;16.94;65.50;99708.76;1804220;77;21588;-66
2021/05/28 09:26:36;;;;;;;2.65;1.57;;;;;;;16.52;64.44;99713.98;1804739;77;21152;-67
2021/05/28 09:29:06;;;;;;;1.00;0.90;;;;;;;16.52;65.24;99719.27;1805067;78;21621;-67
2021/05/28 09:31:35;;;;;;;6.75;2.22;;;;;;;16.54;64.77;99718.20;1800983;78;21301;-68
2021/05/28 09:34:04;;;;;;;3.95;1.27;;;;;;;16.19;63.69;99716.78;1799920;78;21015;-67
2021/05/28 09:36:40;;;;;;;2.37;1.47;;;;;;;15.83;62.84;99724.98;1807105;77;20937;-68
2021/05/28 09:39:13;;;;;;;2.75;1.65;;;;;;;15.76;64.34;99713.17;1799564;77;21003;-66
2021/05/28 09:41:54;;;;;;;2.83;1.50;;;;;;;15.57;61.93;99728.50;1801977;78;20943;-68
2021/05/28 09:44:29;;;;;;;2.02;1.20;;;;;;;14.54;62.04;99730.84;1798304;78;21096;-67
2021/05/28 09:47:19;;;;;;;1.98;1.65;;;;;;;13.69;63.03;99742.66;1798699;77;21633;-66
2021/05/28 09:49:51;;;;;;;2.85;2.05;;;;;;;12.68;67.01;99743.59;1801571;77;20992;-67
2021/05/28 09:52:29;;;;;;;2.25;1.87;;;;;;;12.04;67.08;99743.16;1804670;78;21736;-67
2021/05/28 09:54:59;;;;;;;2.52;2.10;;;;;;;11.90;68.59;99745.19;1800489;77;20984;-65
2021/05/28 09:57:31;;;;;;;2.92;1.80;;;;;;;11.89;69.24;99746.59;1799342;78;21069;-65
2021/05/28 10:00:02;;;;;;;1.70;1.55;;;;;;;11.96;68.44;99748.81;1801526;77;21039;-67
2021/05/28 10:04:58;;;;;;;1.52;1.42;;;;;;;12.60;68.88;99754.95;1807232;78;20983;-68
2021/05/28 10:07:28;;;;;;;2.70;1.90;;;;;;;12.79;68.42;99757.87;1801292;78;21555;-67
2021/05/28 10:09:56;;;;;;;2.30;2.10;;;;;;;12.87;68.21;99756.98;1806552;78;21074;-67
2021/05/28 10:12:24;;;;;;;2.58;2.15;;;;;;;12.83;68.15;99762.03;1739398;80;20955;-67
2021/05/28 10:14:52;;;;;;;2.05;1.85;;;;;;;13.14;68.39;99759.36;1738585;80;21027;-67
2021/05/28 10:17:22;;;;;;;3.72;2.70;;;;;;;13.48;68.85;99757.44;1742094;80;21017;-66
2021/05/28 10:19:50;;;;;;;4.15;2.87;;;;;;;13.39;68.28;99763.23;1741907;80;21105;-65
2021/05/28 10:22:18;;;;;;;3.12;2.55;;;;;;;13.15;68.48;99758.88;1738054;80;21579;-67
2021/05/28 10:24:45;;;;;;;3.80;2.80;;;;;;;12.94;69.01;99759.66;1742591;79;21633;-68
2021/05/28 10:27:20;;;;;;;;;;;;;;;12.68;68.45;99759.31;1744238;80;21574;-69
2021/05/28 10:29:53;;;;;;;3.85;2.90;;;;;;;12.73;69.25;99767.77;1731870;82;20169;-69
2021/05/28 10:32:21;;;;;;;2.75;2.50;;;;;;;12.73;69.20;99771.69;1741675;82;21751;-67
2021/05/28 10:35:12;;;;;;;2.50;2.22;;;;;;;12.40;69.23;99780.08;1728639;82;21154;-67
2021/05/28 10:37:43;;;;;;;2.80;2.00;;;;;;;12.38;69.44;99775.38;1728041;80;21309;-68
2021/05/28 10:40:33;;;;;;;2.83;1.98;;;;;;;12.16;69.14;99781.78;1725081;80;21693;-67
2021/05/28 10:43:05;;;;;;;2.27;2.05;;;;;;;12.03;69.74;99782.03;1729737;82;21063;-67
2021/05/28 10:46:13;;;;;;;5.25;2.52;;;;;;;11.76;70.23;99785.14;1774480;78;22192;-67
2021/05/28 10:48:44;;;;;;;3.17;2.67;;;;;;;11.58;70.99;99786.05;1751916;80;21049;-67
2021/05/28 10:51:25;;;;;;;4.30;2.30;;;;;;;11.84;70.87;99780.33;1754762;80;21464;-67
2021/05/28 10:53:57;;;;;;;2.30;2.10;;;;;;;12.37;70.99;99788.11;1745660;81;21085;-68
2021/05/28 10:56:41;;;;;;;3.42;2.25;;;;;;;12.66;70.11;99783.45;1745610;80;20972;-68
2021/05/28 10:59:15;;;;;;;2.83;2.35;;;;;;;12.84;70.51;99779.44;1743913;80;20987;-69
2021/05/28 11:01:47;;;;;;;4.55;2.62;;;;;;;13.30;69.99;99784.24;1743675;80;21391;-69
2021/05/28 11:04:24;;;;;;;2.75;2.17;;;;;;;13.57;70.05;99785.73;1744167;80;21188;-69
2021/05/28 11:07:03;;;;;;;2.83;2.10;;;;;;;13.63;69.33;99785.38;1742956;80;21664;-69
2021/05/28 11:09:49;;;;;;;6.15;2.33;;;;;;;13.83;69.61;99782.03;1743281;80;20967;-68
2021/05/28 11:12:37;;;;;;;3.13;1.60;;;;;;;13.96;69.27;99776.44;1741735;80;20970;-67
2021/05/28 11:15:15;;;;;;;3.33;1.92;;;;;;;14.12;69.50;99776.84;1741892;80;21410;-68
2021/05/28 11:18:04;;;;;;;1.95;1.62;;;;;;;14.33;68.90;99779.44;1742521;80;21041;-70
2021/05/28 11:20:37;;;;;;;1.37;1.12;;;;;;;14.14;68.38;99781.50;1746943;80;21015;-68
2021/05/28 11:23:16;;;;;;;1.52;1.40;;;;;;;13.54;68.36;99775.43;1749502;80;21824;-68
2021/05/28 11:25:48;;;;;;;1.50;1.40;;;;;;;13.21;68.67;99771.16;1737952;80;21019;-70
2021/05/28 11:28:15;;;;;;;3.22;1.30;;;;;;;12.97;69.33;99780.45;1740843;81;21100;-68
2021/05/28 11:30:52;;;;;;;1.57;1.00;;;;;;;12.98;69.84;99784.74;1733782;80;21161;-68
2021/05/28 11:33:48;;;;;;;1.50;0.90;;;;;;;13.03;69.00;99780.09;1737530;80;21099;-68
2021/05/28 11:36:31;;;;;;;1.50;0.60;;;;;;;12.99;69.29;99781.18;1733751;80;21011;-68
2021/05/28 11:39:00;;;;;;;0.70;0.50;;;;;;;13.45;69.18;99789.09;1748018;80;21115;-67
2021/05/28 11:41:50;;;;;;;0.78;0.78;;;;;;;13.96;67.84;99776.44;1750671;80;21573;-67
2021/05/28 11:44:22;;;;;;;0.70;0.62;;;;;;;14.05;66.82;99786.38;1747809;80;22144;-67
2021/05/28 11:46:52;;;;;;;0.57;0.57;;;;;;;14.03;64.66;99776.45;1747976;81;21007;-68
2021/05/28 11:49:21;;;;;;;1.27;0.47;;;;;;;14.12;65.85;99780.77;1747403;80;21728;-67
2021/05/28 11:52:09;;;;;;;2.87;0.60;;;;;;;14.14;64.95;99774.46;1716611;81;21034;-67
2021/05/28 11:54:37;;;;;;;0.85;0.70;;;;;;;14.05;63.45;99783.75;1739846;80;21720;-68
2021/05/28 11:57:13;;;;;;;0.70;0.70;;;;;;;13.85;63.47;99784.11;1747098;81;21156;-67
2021/05/28 11:59:54;;;;;;;0.93;0.53;;;;;;;13.83;63.43;99785.98;1743339;80;20976;-68
2021/05/28 12:02:52;;;;;;;1.35;0.70;;;;;;;13.89;63.31;99785.60;1746982;80;21023;-68